Time;durP1;ratioP1;P1;durP2;ratioP2;P2;SDS_P1;SDS_P2;PMS_P1;PMS_P2;Temp;Humidity;BMP_temperature;BMP_pressure;BME280_temperature;BME280_humidity;BME280_pressure;Samples;Min_cycle;Max_cycle;Signal;HPM_P1;HPM_P2
2023/06/03 00:02:10;;;;;;;1999.90;999.90;;;12.70;65.20;;;;;;5037801;28;20492;-89
2023/06/03 00:04:41;;;;;;;1999.90;999.90;;;12.70;65.70;;;;;;5035307;28;20118;-88
2023/06/03 00:07:07;;;;;;;1999.90;999.90;;;12.70;65.80;;;;;;5038998;28;20546;-89
2023/06/03 00:09:32;;;;;;;1999.90;999.90;;;12.50;66.00;;;;;;5040862;28;20520;-91
2023/06/03 00:11:58;;;;;;;1999.90;999.90;;;12.60;66.30;;;;;;5040919;28;20029;-89
2023/06/03 00:14:24;;;;;;;1999.90;999.90;;;12.50;66.10;;;;;;5039074;28;20469;-89
2023/06/03 00:16:50;;;;;;;1999.90;999.90;;;12.50;66.20;;;;;;5034770;28;20497;-89
2023/06/03 00:19:17;;;;;;;1999.90;999.90;;;12.50;66.50;;;;;;5036641;28;20056;-88
2023/06/03 00:21:49;;;;;;;1999.90;999.90;;;12.50;66.60;;;;;;5035407;28;20033;-89
2023/06/03 00:24:22;;;;;;;1999.90;999.90;;;12.50;66.70;;;;;;5035234;28;20033;-88
2023/06/03 00:26:52;;;;;;;1999.90;999.90;;;12.40;67.00;;;;;;5035359;28;20100;-89
2023/06/03 00:29:21;;;;;;;1999.90;999.90;;;12.30;67.30;;;;;;5034562;28;20041;-88
2023/06/03 00:31:47;;;;;;;1999.90;999.90;;;12.30;67.40;;;;;;5037435;28;20033;-88
2023/06/03 00:34:13;;;;;;;1999.90;999.90;;;12.10;67.90;;;;;;5033652;28;20017;-89
2023/06/03 00:36:39;;;;;;;1999.90;999.90;;;12.10;68.00;;;;;;5030992;28;20044;-89
2023/06/03 00:39:05;;;;;;;1999.90;999.90;;;12.10;68.90;;;;;;5040139;28;20063;-89
2023/06/03 00:41:30;;;;;;;1999.90;999.90;;;12.00;68.70;;;;;;5045627;28;20523;-87
2023/06/03 00:43:56;;;;;;;1999.90;999.90;;;12.00;68.90;;;;;;5027240;28;20094;-87
2023/06/03 00:46:22;;;;;;;1999.90;999.90;;;12.00;69.20;;;;;;5051978;28;20580;-87
2023/06/03 00:48:48;;;;;;;1999.90;999.90;;;12.00;69.50;;;;;;5028762;28;20037;-88
2023/06/03 00:51:15;;;;;;;1999.90;999.90;;;11.90;69.40;;;;;;5057287;28;20029;-86
2023/06/03 00:53:40;;;;;;;1999.90;999.90;;;11.90;69.80;;;;;;5048430;28;20096;-86
2023/06/03 00:56:07;;;;;;;1999.90;999.90;;;11.90;69.70;;;;;;5045856;28;20071;-87
2023/06/03 00:58:32;;;;;;;1999.90;999.90;;;11.90;69.80;;;;;;5056307;28;20056;-87
2023/06/03 01:00:58;;;;;;;1999.90;999.90;;;11.80;69.80;;;;;;5050009;28;20045;-88
2023/06/03 01:03:24;;;;;;;1999.90;999.90;;;11.80;70.40;;;;;;5043508;28;20408;-88
2023/06/03 01:06:16;;;;;;;1999.90;999.90;;;11.70;70.90;;;;;;5055547;28;20038;-88
2023/06/03 01:08:55;;;;;;;1999.90;999.90;;;11.70;70.80;;;;;;5043461;28;20045;-87
2023/06/03 01:11:36;;;;;;;1999.90;999.90;;;11.70;70.90;;;;;;5054768;28;20037;-87
2023/06/03 01:14:13;;;;;;;;;;;11.70;70.80;;;;;;5047533;28;20026;-89
2023/06/03 01:16:44;;;;;;;1999.90;999.90;;;11.60;71.20;;;;;;5048051;28;19940;-88
2023/06/03 01:19:22;;;;;;;;;;;11.60;71.40;;;;;;5053420;28;20033;-88
2023/06/03 01:21:49;;;;;;;1999.90;999.90;;;11.60;71.30;;;;;;5046127;28;19900;-86
2023/06/03 01:24:19;;;;;;;1999.90;999.90;;;11.60;71.60;;;;;;5032584;28;20042;-87
2023/06/03 01:26:44;;;;;;;1999.90;999.90;;;11.50;72.30;;;;;;5044811;28;20030;-88
2023/06/03 01:29:10;;;;;;;1999.90;999.90;;;11.40;72.70;;;;;;5041618;28;20486;-89
2023/06/03 01:31:36;;;;;;;1999.90;999.90;;;11.40;72.90;;;;;;5037145;28;20017;-88
2023/06/03 01:34:02;;;;;;;1999.90;999.90;;;11.30;73.00;;;;;;5042760;28;20041;-89
2023/06/03 01:36:28;;;;;;;1999.90;999.90;;;11.30;73.20;;;;;;5031432;28;20088;-89
2023/06/03 01:38:54;;;;;;;1999.90;999.90;;;11.30;73.50;;;;;;5024154;28;20045;-89
2023/06/03 01:41:20;;;;;;;1999.90;999.90;;;11.20;73.70;;;;;;5022398;28;20033;-90
2023/06/03 01:43:45;;;;;;;1999.90;999.90;;;11.20;73.40;;;;;;5041642;28;20099;-89
2023/06/03 01:46:11;;;;;;;1999.90;999.90;;;11.20;73.70;;;;;;5042152;28;20230;-88
2023/06/03 01:48:37;;;;;;;1999.90;999.90;;;11.20;73.60;;;;;;5039791;28;20400;-91
2023/06/03 01:51:03;;;;;;;1999.90;999.90;;;11.20;73.80;;;;;;5047574;28;20091;-90
2023/06/03 01:53:29;;;;;;;1999.90;999.90;;;11.20;73.80;;;;;;5040910;28;20033;-88
2023/06/03 01:55:54;;;;;;;1999.90;999.90;;;11.10;73.90;;;;;;5018587;28;20452;-88
2023/06/03 01:58:20;;;;;;;1999.90;999.90;;;11.10;74.00;;;;;;5035503;28;20489;-88
2023/06/03 02:00:46;;;;;;;1999.90;999.90;;;11.10;74.00;;;;;;5039321;28;20033;-89
2023/06/03 02:03:11;;;;;;;1999.90;999.90;;;11.10;74.50;;;;;;5044822;28;20025;-90
2023/06/03 02:05:37;;;;;;;1999.90;999.90;;;11.00;74.70;;;;;;5036233;28;20029;-89
2023/06/03 02:08:02;;;;;;;1999.90;999.90;;;10.90;74.80;;;;;;5038748;28;20056;-89
2023/06/03 02:10:28;;;;;;;1999.90;999.90;;;10.90;75.50;;;;;;5039294;28;20037;-88
2023/06/03 02:12:54;;;;;;;1999.90;999.90;;;10.90;75.40;;;;;;5041220;28;20044;-90
2023/06/03 02:15:19;;;;;;;1999.90;999.90;;;10.90;75.50;;;;;;5038068;28;20025;-87
2023/06/03 02:17:45;;;;;;;1999.90;999.90;;;10.90;75.40;;;;;;5039378;28;20482;-88
2023/06/03 02:20:11;;;;;;;1999.90;999.90;;;10.90;75.40;;;;;;5022470;28;20060;-88
2023/06/03 02:22:37;;;;;;;1999.90;999.90;;;10.70;76.00;;;;;;5040968;28;20035;-89
2023/06/03 02:25:03;;;;;;;1999.90;999.90;;;10.70;76.00;;;;;;5035370;28;20116;-88
2023/06/03 02:27:29;;;;;;;1999.90;999.90;;;10.70;76.20;;;;;;5042140;28;20033;-88
2023/06/03 02:29:55;;;;;;;1999.90;999.90;;;10.70;76.40;;;;;;5040710;28;20042;-89
2023/06/03 02:32:21;;;;;;;509.17;482.17;;;10.70;76.10;;;;;;5036611;28;20488;-88
2023/06/03 02:34:50;;;;;;;1999.90;999.90;;;10.70;76.30;;;;;;5044721;28;20079;-87
2023/06/03 02:37:16;;;;;;;916.70;644.10;;;10.60;76.50;;;;;;5022039;28;20041;-88
2023/06/03 02:39:42;;;;;;;1999.90;999.90;;;10.70;76.60;;;;;;5039741;28;20159;-88
2023/06/03 02:42:08;;;;;;;1999.90;999.90;;;10.60;76.50;;;;;;5037446;28;20086;-88
2023/06/03 02:44:34;;;;;;;1025.00;745.45;;;10.60;76.90;;;;;;5032109;28;20025;-87
2023/06/03 02:46:59;;;;;;;1999.90;999.90;;;10.50;77.30;;;;;;5035258;28;20047;-88
2023/06/03 02:49:25;;;;;;;1058.13;775.38;;;10.50;77.50;;;;;;5037308;28;20065;-88
2023/06/03 02:51:51;;;;;;;1999.90;999.90;;;10.50;77.40;;;;;;5030345;28;20037;-88
2023/06/03 02:54:16;;;;;;;1999.90;999.90;;;10.50;77.30;;;;;;5037692;28;20496;-87
2023/06/03 02:56:42;;;;;;;1999.90;999.90;;;10.40;78.00;;;;;;5031310;28;20401;-87
2023/06/03 02:59:07;;;;;;;764.65;720.60;;;10.50;77.50;;;;;;5029797;28;20029;-87
2023/06/03 03:01:33;;;;;;;909.40;636.97;;;10.50;77.50;;;;;;5040284;28;20034;-87
2023/06/03 03:03:59;;;;;;;1061.95;779.10;;;10.40;77.50;;;;;;5024637;28;20037;-89
2023/06/03 03:06:25;;;;;;;1067.45;785.10;;;10.40;77.70;;;;;;5013601;28;20063;-88
2023/06/03 03:08:52;;;;;;;552.08;517.10;;;10.20;78.60;;;;;;5039078;28;20488;-89
2023/06/03 03:11:18;;;;;;;750.35;706.58;;;10.20;78.90;;;;;;5048078;28;20136;-89
2023/06/03 03:13:45;;;;;;;763.70;719.72;;;10.10;79.00;;;;;;5016378;28;20111;-88
2023/06/03 03:16:12;;;;;;;745.17;701.47;;;10.20;78.60;;;;;;5036590;28;20025;-89
2023/06/03 03:18:38;;;;;;;627.28;593.00;;;10.20;78.50;;;;;;5032424;28;20033;-88
2023/06/03 03:21:05;;;;;;;700.50;661.25;;;10.20;78.70;;;;;;5022142;28;20054;-88
2023/06/03 03:23:31;;;;;;;763.42;721.10;;;10.20;78.50;;;;;;5043795;28;20021;-89
2023/06/03 03:25:58;;;;;;;1003.65;726.55;;;10.20;78.40;;;;;;5027177;28;20037;-87
2023/06/03 03:28:24;;;;;;;760.28;717.80;;;10.20;78.60;;;;;;5030411;28;20649;-88
2023/06/03 03:30:50;;;;;;;778.25;734.10;;;10.10;78.60;;;;;;5030987;28;20124;-89
2023/06/03 03:33:20;;;;;;;798.80;752.95;;;10.10;78.70;;;;;;5026898;28;20520;-88
2023/06/03 03:35:48;;;;;;;699.95;660.50;;;10.10;78.90;;;;;;5026549;28;20070;-88
2023/06/03 03:38:15;;;;;;;736.45;692.70;;;10.10;78.90;;;;;;5039040;28;20030;-87
2023/06/03 03:40:41;;;;;;;727.22;686.38;;;10.00;79.50;;;;;;5031739;28;20056;-89
2023/06/03 03:43:18;;;;;;;715.97;675.30;;;10.00;79.40;;;;;;5016034;28;20065;-88
2023/06/03 03:45:45;;;;;;;722.00;682.47;;;10.00;79.70;;;;;;5038361;28;20033;-90
2023/06/03 03:48:15;;;;;;;519.78;493.13;;;10.00;79.20;;;;;;5035331;28;20037;-89
2023/06/03 03:50:43;;;;;;;629.15;595.22;;;10.10;79.30;;;;;;5042763;28;20057;-88
2023/06/03 03:53:17;;;;;;;549.45;521.63;;;10.00;79.60;;;;;;5036543;28;20086;-89
2023/06/03 03:55:45;;;;;;;727.47;687.38;;;10.10;79.60;;;;;;5030416;28;20103;-88
2023/06/03 03:58:29;;;;;;;636.17;602.15;;;10.10;79.20;;;;;;5038885;28;20031;-88
2023/06/03 04:01:17;;;;;;;600.78;568.95;;;10.20;79.40;;;;;;5032331;28;20029;-89
2023/06/03 04:03:48;;;;;;;488.48;464.88;;;10.10;79.10;;;;;;5027788;28;20037;-90
2023/06/03 04:06:29;;;;;;;524.67;498.38;;;10.30;78.90;;;;;;5039342;28;20026;-89
2023/06/03 04:08:56;;;;;;;588.65;558.72;;;10.20;78.70;;;;;;5042928;28;20044;-89
2023/06/03 04:11:28;;;;;;;446.77;424.90;;;10.20;78.80;;;;;;5038132;28;20543;-88
2023/06/03 04:13:58;;;;;;;571.85;542.75;;;10.30;78.60;;;;;;5034594;28;20366;-88
2023/06/03 04:16:51;;;;;;;451.08;429.63;;;10.30;78.70;;;;;;5038851;28;20044;-89
2023/06/03 04:19:36;;;;;;;413.38;395.88;;;10.30;78.60;;;;;;5039340;28;20033;-88
2023/06/03 04:22:06;;;;;;;503.38;477.23;;;10.30;78.90;;;;;;5029772;28;20033;-89
2023/06/03 04:24:36;;;;;;;537.20;508.77;;;10.40;78.00;;;;;;5035803;28;20075;-87
2023/06/03 04:27:03;;;;;;;347.20;332.75;;;10.40;78.20;;;;;;5030940;28;20524;-88
2023/06/03 04:29:30;;;;;;;331.40;317.90;;;10.40;78.20;;;;;;5038702;28;20538;-87
2023/06/03 04:31:56;;;;;;;427.15;408.25;;;10.50;77.60;;;;;;5042692;28;20408;-88
2023/06/03 04:34:27;;;;;;;480.35;456.75;;;10.50;77.90;;;;;;5035283;28;20025;-87
2023/06/03 04:36:53;;;;;;;673.58;635.90;;;10.60;77.30;;;;;;5044171;28;20206;-87
2023/06/03 04:39:19;;;;;;;533.45;508.38;;;10.60;76.90;;;;;;5040760;28;20116;-87
2023/06/03 04:41:44;;;;;;;410.20;392.45;;;10.70;77.10;;;;;;5034847;28;20056;-88
2023/06/03 04:44:11;;;;;;;551.90;523.92;;;10.70;76.80;;;;;;5042446;28;20036;-89
2023/06/03 04:46:39;;;;;;;347.67;333.02;;;10.80;76.90;;;;;;5038016;28;20065;-88
2023/06/03 04:49:08;;;;;;;462.52;441.17;;;10.80;76.40;;;;;;5021062;28;20124;-88
2023/06/03 04:51:34;;;;;;;575.78;545.08;;;10.80;76.80;;;;;;5041823;28;20111;-87
2023/06/03 04:54:01;;;;;;;498.98;476.75;;;10.90;75.90;;;;;;5037228;28;20110;-88
2023/06/03 04:56:29;;;;;;;381.02;363.83;;;10.90;76.50;;;;;;5043440;28;20026;-87
2023/06/03 04:59:00;;;;;;;445.75;424.95;;;11.10;75.80;;;;;;5041102;28;20033;-87
2023/06/03 05:01:26;;;;;;;366.60;347.60;;;11.00;75.70;;;;;;5036416;28;20022;-87
2023/06/03 05:03:55;;;;;;;617.92;585.38;;;11.00;75.40;;;;;;5041763;28;21035;-87
2023/06/03 05:06:21;;;;;;;491.08;468.25;;;11.00;76.60;;;;;;5038857;28;20021;-86
2023/06/03 05:08:48;;;;;;;403.70;386.20;;;11.10;75.70;;;;;;5043839;28;20028;-87
2023/06/03 05:11:17;;;;;;;480.80;457.60;;;11.30;75.50;;;;;;5020887;28;20052;-87
2023/06/03 05:13:44;;;;;;;593.15;559.88;;;11.30;75.10;;;;;;5034225;28;20025;-87
2023/06/03 05:16:10;;;;;;;536.97;509.75;;;11.40;74.90;;;;;;5040012;28;20014;-88
2023/06/03 05:18:36;;;;;;;247.45;234.00;;;11.50;75.20;;;;;;5039109;28;20051;-89
2023/06/03 05:21:02;;;;;;;469.75;446.50;;;11.60;73.70;;;;;;5037393;28;20682;-88
2023/06/03 05:23:28;;;;;;;417.23;398.63;;;11.60;73.80;;;;;;5038422;28;20529;-87
2023/06/03 05:25:54;;;;;;;396.88;379.92;;;11.60;74.20;;;;;;5033372;28;20049;-88
2023/06/03 05:28:20;;;;;;;438.88;417.98;;;11.80;74.20;;;;;;5040540;28;20025;-87
2023/06/03 05:30:45;;;;;;;515.75;482.95;;;11.80;73.30;;;;;;5035322;28;20037;-87
2023/06/03 05:33:31;;;;;;;364.60;349.83;;;11.80;73.40;;;;;;5034172;28;20420;-86
2023/06/03 05:35:57;;;;;;;239.52;229.73;;;12.00;73.10;;;;;;5035518;28;20083;-87
2023/06/03 05:38:24;;;;;;;419.55;401.13;;;12.00;72.30;;;;;;5034179;28;20063;-86
2023/06/03 05:40:51;;;;;;;459.13;438.10;;;12.00;72.90;;;;;;5041536;28;20028;-87
2023/06/03 05:43:17;;;;;;;443.75;424.67;;;12.20;72.40;;;;;;5039798;28;20029;-87
2023/06/03 05:45:43;;;;;;;480.13;457.52;;;12.20;72.20;;;;;;5033201;28;20103;-87
2023/06/03 05:48:09;;;;;;;409.10;390.58;;;12.20;71.80;;;;;;5038423;28;20564;-88
2023/06/03 05:50:37;;;;;;;462.73;441.27;;;12.30;71.70;;;;;;5023076;28;20033;-88
2023/06/03 05:53:03;;;;;;;635.55;597.67;;;12.30;71.70;;;;;;5035663;28;20036;-87
2023/06/03 05:55:29;;;;;;;397.15;379.80;;;12.40;72.00;;;;;;5039265;28;20028;-86
2023/06/03 05:57:55;;;;;;;498.63;475.50;;;12.60;71.90;;;;;;5035412;28;20029;-86
2023/06/03 06:00:21;;;;;;;461.85;440.65;;;12.60;71.00;;;;;;5045031;28;20036;-86
2023/06/03 06:02:47;;;;;;;527.03;502.33;;;12.80;71.10;;;;;;5035375;28;20631;-86
2023/06/03 06:05:13;;;;;;;553.50;527.08;;;12.80;70.20;;;;;;5034924;28;20021;-87
2023/06/03 06:07:39;;;;;;;408.48;391.20;;;12.90;70.40;;;;;;5020623;28;20070;-86
2023/06/03 06:10:05;;;;;;;520.50;495.23;;;13.10;69.60;;;;;;5033725;28;20060;-86
2023/06/03 06:12:31;;;;;;;439.83;418.77;;;13.10;69.00;;;;;;5037618;28;20033;-88
2023/06/03 06:14:56;;;;;;;517.92;492.92;;;13.20;68.50;;;;;;5034929;28;20469;-86
2023/06/03 06:17:22;;;;;;;480.02;457.35;;;13.30;68.00;;;;;;5036300;28;20485;-86
2023/06/03 06:19:48;;;;;;;548.13;521.53;;;13.40;69.00;;;;;;4990538;28;1163006;-85
2023/06/03 06:22:13;;;;;;;575.20;546.88;;;13.50;69.80;;;;;;5037242;28;20307;-86
2023/06/03 06:24:39;;;;;;;586.92;557.28;;;13.70;69.00;;;;;;5036330;28;21009;-85
2023/06/03 06:27:05;;;;;;;584.97;555.70;;;13.80;68.60;;;;;;5022069;28;20091;-86
2023/06/03 06:29:32;;;;;;;520.33;495.30;;;13.80;67.30;;;;;;5016746;28;20034;-86
2023/06/03 06:31:59;;;;;;;627.50;595.15;;;13.80;67.10;;;;;;5037459;28;20044;-87
2023/06/03 06:34:29;;;;;;;625.25;593.58;;;13.90;67.10;;;;;;5036411;28;20083;-86
2023/06/03 06:37:09;;;;;;;661.88;626.97;;;14.00;65.70;;;;;;5033679;28;20429;-86
2023/06/03 06:39:55;;;;;;;433.58;412.00;;;14.10;66.80;;;;;;5035393;28;20042;-86
2023/06/03 06:42:29;;;;;;;619.47;587.15;;;14.00;66.60;;;;;;5036220;28;20033;-86
2023/06/03 06:44:55;;;;;;;678.83;639.10;;;14.20;67.80;;;;;;5036608;28;20094;-86
2023/06/03 06:47:26;;;;;;;655.08;616.03;;;14.30;65.50;;;;;;5020405;28;20484;-86
2023/06/03 06:49:56;;;;;;;654.08;619.15;;;14.50;64.30;;;;;;5042470;28;20093;-86
2023/06/03 06:52:23;;;;;;;537.03;507.20;;;14.50;64.40;;;;;;5066992;28;20033;-86
2023/06/03 06:54:49;;;;;;;557.20;530.00;;;14.60;63.60;;;;;;5053627;28;20037;-85
2023/06/03 06:57:26;;;;;;;686.40;634.33;;;14.80;64.30;;;;;;5060559;28;20055;-86
2023/06/03 06:59:53;;;;;;;761.92;715.65;;;14.90;63.60;;;;;;5060482;28;20021;-85
2023/06/03 07:02:19;;;;;;;738.83;695.53;;;14.90;64.10;;;;;;5061325;28;20017;-85
2023/06/03 07:04:48;;;;;;;776.58;721.03;;;15.10;64.00;;;;;;5066114;28;20017;-87
2023/06/03 07:07:13;;;;;;;715.67;676.05;;;15.20;63.80;;;;;;5045513;28;20043;-86
2023/06/03 07:09:41;;;;;;;704.50;663.65;;;15.20;63.00;;;;;;5057164;28;20033;-87
2023/06/03 07:12:08;;;;;;;777.55;730.88;;;15.20;62.60;;;;;;5065777;28;20042;-85
2023/06/03 07:14:34;;;;;;;815.00;760.78;;;15.50;63.90;;;;;;5046904;28;20033;-86
2023/06/03 07:17:00;;;;;;;798.38;750.35;;;15.70;62.40;;;;;;5035653;28;20029;-85
2023/06/03 07:19:38;;;;;;;813.83;762.72;;;15.60;63.70;;;;;;5031175;28;20401;-87
2023/06/03 07:22:05;;;;;;;859.17;799.53;;;15.70;62.20;;;;;;5012489;28;20511;-86
2023/06/03 07:24:33;;;;;;;887.10;826.42;;;15.70;61.50;;;;;;5043722;28;20024;-86
2023/06/03 07:26:59;;;;;;;883.33;823.55;;;15.80;62.00;;;;;;5036365;28;20037;-85
2023/06/03 07:29:26;;;;;;;879.22;818.00;;;16.00;62.10;;;;;;5050736;28;20044;-86
2023/06/03 07:31:52;;;;;;;922.53;857.58;;;16.00;61.80;;;;;;5038072;28;20401;-86
2023/06/03 07:34:22;;;;;;;793.72;741.33;;;16.00;61.40;;;;;;5015901;28;20021;-87
2023/06/03 07:36:52;;;;;;;959.42;885.33;;;16.20;60.70;;;;;;5037574;28;20024;-86
2023/06/03 07:39:19;;;;;;;911.63;845.80;;;16.30;59.90;;;;;;5036686;28;20037;-86
2023/06/03 07:41:52;;;;;;;834.28;775.83;;;16.40;60.30;;;;;;5032914;28;20441;-86
2023/06/03 07:44:40;;;;;;;724.25;665.05;;;16.50;60.50;;;;;;5032526;28;20033;-87
2023/06/03 07:47:07;;;;;;;741.33;681.33;;;16.40;59.80;;;;;;5028930;28;20441;-85
2023/06/03 07:49:33;;;;;;;1014.80;721.85;;;16.30;59.70;;;;;;5036239;28;20030;-86
2023/06/03 07:51:58;;;;;;;878.92;814.75;;;16.60;58.90;;;;;;5037660;28;20409;-88
2023/06/03 07:54:26;;;;;;;1046.32;750.83;;;16.80;59.30;;;;;;5028514;28;20060;-85
2023/06/03 07:56:56;;;;;;;423.10;385.52;;;17.00;59.40;;;;;;5037103;28;20131;-86
2023/06/03 07:59:23;;;;;;;789.20;724.93;;;16.80;58.70;;;;;;5034496;28;20033;-86
2023/06/03 08:01:51;;;;;;;1278.35;757.53;;;17.10;58.40;;;;;;5033421;28;20132;-86
2023/06/03 08:04:19;;;;;;;1999.90;999.90;;;17.10;57.10;;;;;;5033516;28;20750;-86
2023/06/03 08:06:46;;;;;;;1999.90;999.90;;;17.20;57.70;;;;;;5033550;28;20703;-88
2023/06/03 08:09:27;;;;;;;1999.90;999.90;;;17.30;58.10;;;;;;5033539;28;20040;-87
2023/06/03 08:11:57;;;;;;;1999.90;999.90;;;17.50;58.50;;;;;;5035874;28;20034;-85
2023/06/03 08:14:25;;;;;;;1999.90;999.90;;;17.70;58.20;;;;;;5025239;28;20056;-86
2023/06/03 08:16:52;;;;;;;1999.90;999.90;;;18.00;57.60;;;;;;5037388;28;20039;-86
2023/06/03 08:19:18;;;;;;;1999.90;999.90;;;18.20;57.00;;;;;;5035132;28;20026;-86
2023/06/03 08:21:48;;;;;;;1999.90;999.90;;;18.10;55.40;;;;;;5038926;28;20087;-87
2023/06/03 08:24:14;;;;;;;1999.90;999.90;;;18.30;56.30;;;;;;5036556;28;20456;-86
2023/06/03 08:26:48;;;;;;;1999.90;999.90;;;18.50;57.80;;;;;;5034835;28;20037;-86
2023/06/03 08:29:14;;;;;;;1525.63;773.10;;;18.50;55.20;;;;;;5021026;28;20033;-87
2023/06/03 08:31:39;;;;;;;1999.90;999.90;;;18.60;56.30;;;;;;5021262;28;20025;-86
2023/06/03 08:34:05;;;;;;;1999.90;999.90;;;18.90;55.20;;;;;;5033932;28;20049;-86
2023/06/03 08:36:32;;;;;;;1999.90;999.90;;;18.80;55.20;;;;;;5037286;28;20029;-86
2023/06/03 08:38:58;;;;;;;1999.90;999.90;;;19.10;54.20;;;;;;5033417;28;20045;-85
2023/06/03 08:41:36;;;;;;;1999.90;999.90;;;18.70;54.40;;;;;;5042565;28;20488;-86
2023/06/03 08:44:08;;;;;;;1999.90;999.90;;;18.70;55.10;;;;;;5035303;28;20030;-85
2023/06/03 08:47:11;;;;;;;1999.90;999.90;;;18.70;53.90;;;;;;5035045;28;20079;-85
2023/06/03 08:49:50;;;;;;;1999.90;999.90;;;19.20;54.20;;;;;;5036133;28;20056;-85
2023/06/03 08:52:19;;;;;;;1999.90;999.90;;;19.10;53.20;;;;;;5030508;28;20026;-84
2023/06/03 08:54:46;;;;;;;1999.90;999.90;;;19.10;52.10;;;;;;5038609;28;20061;-84
2023/06/03 08:57:19;;;;;;;1999.90;999.90;;;19.20;52.30;;;;;;5033365;28;20221;-83
2023/06/03 08:59:46;;;;;;;1999.90;999.90;;;19.30;51.30;;;;;;5033093;28;20035;-85
2023/06/03 09:02:12;;;;;;;1999.90;999.90;;;19.60;53.90;;;;;;5035039;28;20148;-84
2023/06/03 09:04:38;;;;;;;1999.90;999.90;;;19.90;53.40;;;;;;5032401;28;20022;-85
2023/06/03 09:07:05;;;;;;;1999.90;999.90;;;20.00;51.10;;;;;;5037158;28;20084;-84
2023/06/03 09:09:31;;;;;;;1999.90;999.90;;;20.30;51.60;;;;;;5036110;28;20034;-84
2023/06/03 09:11:58;;;;;;;1999.90;999.90;;;20.50;51.00;;;;;;5028908;28;20079;-84
2023/06/03 09:14:24;;;;;;;1999.90;999.90;;;20.10;50.10;;;;;;5043663;28;20028;-84
2023/06/03 09:16:52;;;;;;;1999.90;999.90;;;20.60;48.60;;;;;;5037847;28;20045;-84
2023/06/03 09:19:18;;;;;;;1999.90;999.90;;;20.50;50.20;;;;;;5042420;28;20072;-84
2023/06/03 09:21:46;;;;;;;1999.90;999.90;;;20.50;48.70;;;;;;5042236;28;20488;-85
2023/06/03 09:24:12;;;;;;;1999.90;999.90;;;20.60;48.90;;;;;;5033807;28;20033;-85
2023/06/03 09:26:38;;;;;;;1999.90;999.90;;;20.50;50.60;;;;;;5043814;28;20109;-84
2023/06/03 09:29:06;;;;;;;1999.90;999.90;;;20.70;49.90;;;;;;5036891;28;20046;-86
2023/06/03 09:31:32;;;;;;;1999.90;999.90;;;20.90;48.20;;;;;;5023681;28;20582;-85
2023/06/03 09:33:57;;;;;;;1999.90;999.90;;;20.80;47.50;;;;;;5023713;28;20033;-84
2023/06/03 09:36:25;;;;;;;1999.90;999.90;;;21.10;49.10;;;;;;5031253;28;20033;-84
2023/06/03 09:38:56;;;;;;;1999.90;999.90;;;21.30;46.90;;;;;;5026961;28;20025;-84
2023/06/03 09:41:25;;;;;;;1999.90;999.90;;;21.50;46.50;;;;;;5039040;28;20571;-85
2023/06/03 09:44:05;;;;;;;1999.90;999.90;;;21.30;46.80;;;;;;5038317;28;20409;-85
2023/06/03 09:46:33;;;;;;;1999.90;999.90;;;21.40;48.00;;;;;;5060415;28;20025;-84
2023/06/03 09:49:16;;;;;;;1999.90;999.90;;;21.60;45.50;;;;;;5034829;28;20086;-85
2023/06/03 09:51:46;;;;;;;1999.90;999.90;;;21.60;49.80;;;;;;5044316;28;20382;-85
2023/06/03 09:54:17;;;;;;;1999.90;999.90;;;21.60;46.50;;;;;;5043520;28;20029;-85
2023/06/03 09:56:47;;;;;;;1999.90;999.90;;;21.80;46.30;;;;;;5039400;28;20040;-84
2023/06/03 09:59:17;;;;;;;1999.90;999.90;;;21.80;45.60;;;;;;5043491;28;20024;-85
2023/06/03 10:01:47;;;;;;;1999.90;999.90;;;21.70;46.50;;;;;;5034443;28;20040;-86
2023/06/03 10:04:23;;;;;;;1999.90;999.90;;;21.90;45.50;;;;;;5036046;28;20391;-85
2023/06/03 10:07:14;;;;;;;1999.90;999.90;;;22.40;46.90;;;;;;5036923;28;20500;-85
2023/06/03 10:09:47;;;;;;;1999.90;999.90;;;22.40;44.70;;;;;;5035835;28;20045;-85
2023/06/03 10:12:28;;;;;;;1999.90;999.90;;;22.50;44.10;;;;;;5019148;28;20496;-85
2023/06/03 10:14:56;;;;;;;1999.90;999.90;;;22.70;43.70;;;;;;5026333;28;20043;-86
2023/06/03 10:17:22;;;;;;;1999.90;999.90;;;22.70;45.70;;;;;;5023600;28;20040;-85
2023/06/03 10:19:48;;;;;;;1999.90;999.90;;;22.90;43.60;;;;;;5041040;28;20049;-84
2023/06/03 10:22:18;;;;;;;1999.90;999.90;;;22.90;43.60;;;;;;5040291;28;20032;-84
2023/06/03 10:24:49;;;;;;;1999.90;999.90;;;22.90;41.80;;;;;;5034376;28;20152;-85
2023/06/03 10:27:16;;;;;;;1999.90;999.90;;;22.90;42.70;;;;;;5034672;28;20147;-83
2023/06/03 10:29:42;;;;;;;1999.90;999.90;;;22.50;42.40;;;;;;5024954;28;20490;-85
2023/06/03 10:32:10;;;;;;;1999.90;999.90;;;22.90;43.20;;;;;;5033063;28;20108;-85
2023/06/03 10:34:39;;;;;;;1999.90;999.90;;;22.70;44.00;;;;;;5036087;28;20036;-83
2023/06/03 10:37:06;;;;;;;1999.90;999.90;;;23.00;43.40;;;;;;5042168;28;20025;-84
2023/06/03 10:39:32;;;;;;;1999.90;999.90;;;23.50;44.50;;;;;;5037348;28;20041;-84
2023/06/03 10:42:05;;;;;;;1999.90;999.90;;;23.60;43.60;;;;;;5033039;28;20090;-86
2023/06/03 10:44:32;;;;;;;1999.90;999.90;;;24.20;39.80;;;;;;5040494;28;20381;-86
2023/06/03 10:47:09;;;;;;;1999.90;999.90;;;24.10;40.60;;;;;;5033501;28;20030;-83
2023/06/03 10:49:43;;;;;;;1999.90;999.90;;;23.30;39.60;;;;;;5037350;28;20040;-84
2023/06/03 10:52:24;;;;;;;1999.90;999.90;;;23.50;40.50;;;;;;5039374;28;20025;-84
2023/06/03 10:55:01;;;;;;;1999.90;999.90;;;24.20;38.90;;;;;;5027775;28;20017;-85
2023/06/03 10:57:41;;;;;;;1999.90;999.90;;;24.20;38.50;;;;;;5038393;28;20060;-83
2023/06/03 11:00:09;;;;;;;1999.90;999.90;;;24.80;39.20;;;;;;5034378;28;20028;-84
2023/06/03 11:03:05;;;;;;;1999.90;999.90;;;24.80;37.80;;;;;;5031328;28;20071;-84
2023/06/03 11:05:30;;;;;;;1999.90;999.90;;;24.50;37.30;;;;;;5024921;28;20520;-85
2023/06/03 11:07:56;;;;;;;1999.90;999.90;;;24.80;36.50;;;;;;5010257;28;20128;-86
2023/06/03 11:10:37;;;;;;;1999.90;999.90;;;25.30;35.80;;;;;;5022757;28;20457;-84
2023/06/03 11:13:03;;;;;;;1999.90;999.90;;;25.90;37.20;;;;;;5026373;28;20061;-84
2023/06/03 11:15:56;;;;;;;1999.90;999.90;;;26.40;33.20;;;;;;5036563;28;20017;-85
2023/06/03 11:18:22;;;;;;;1999.90;999.90;;;25.30;35.20;;;;;;5021901;28;20524;-85
2023/06/03 11:20:48;;;;;;;1999.90;999.90;;;26.30;35.40;;;;;;5029464;28;20042;-84
2023/06/03 11:23:45;;;;;;;1999.90;999.90;;;26.70;34.10;;;;;;5026882;28;20421;-84
2023/06/03 11:26:33;;;;;;;1999.90;999.90;;;26.30;35.40;;;;;;5033745;28;20034;-85
2023/06/03 11:29:00;;;;;;;1999.90;999.90;;;27.70;30.80;;;;;;5024152;28;20037;-85
2023/06/03 11:31:27;;;;;;;1999.90;999.90;;;27.60;30.60;;;;;;5029199;28;20444;-86
2023/06/03 11:34:27;;;;;;;1999.90;999.90;;;27.80;31.20;;;;;;5030085;28;20044;-85
2023/06/03 11:36:55;;;;;;;1999.90;999.90;;;28.10;32.30;;;;;;5023993;28;20056;-85
2023/06/03 11:39:22;;;;;;;1999.90;999.90;;;28.10;30.50;;;;;;5041181;28;20025;-85
2023/06/03 11:42:01;;;;;;;1999.90;999.90;;;27.00;31.30;;;;;;5040450;28;20485;-86
2023/06/03 11:44:27;;;;;;;1999.90;999.90;;;27.80;31.80;;;;;;5028966;28;20040;-84
2023/06/03 11:46:53;;;;;;;1999.90;999.90;;;28.10;28.70;;;;;;5026602;28;20037;-86
2023/06/03 11:49:23;;;;;;;1999.90;999.90;;;27.50;29.60;;;;;;5041272;28;20493;-83
2023/06/03 11:51:55;;;;;;;1999.90;999.90;;;26.70;30.00;;;;;;5023667;28;20463;-84
2023/06/03 11:54:21;;;;;;;1999.90;999.90;;;28.40;29.90;;;;;;5036503;28;20419;-83
2023/06/03 11:56:48;;;;;;;1999.90;999.90;;;28.40;28.70;;;;;;5037288;28;20021;-86
2023/06/03 11:59:17;;;;;;;1999.90;999.90;;;27.90;29.10;;;;;;5029675;28;20057;-85
2023/06/03 12:01:59;;;;;;;1999.90;999.90;;;27.70;29.20;;;;;;5029043;28;20029;-85
2023/06/03 12:04:25;;;;;;;1999.90;999.90;;;27.90;28.40;;;;;;5029013;28;20036;-85
2023/06/03 12:06:51;;;;;;;1999.90;999.90;;;28.00;29.00;;;;;;5029566;28;20025;-84
2023/06/03 12:09:22;;;;;;;1999.90;999.90;;;28.10;28.70;;;;;;5025925;28;20042;-85
2023/06/03 12:11:48;;;;;;;1999.90;999.90;;;28.70;27.90;;;;;;5037390;28;20457;-84
2023/06/03 12:14:24;;;;;;;1999.90;999.90;;;29.00;27.20;;;;;;5037067;28;20536;-85